createdAt,value
2022-08-01T00:04:48.534Z,80
2022-08-01T00:10:00.352Z,80
2022-08-01T00:15:12.128Z,78
2022-08-01T00:20:24.077Z,78
2022-08-01T00:25:36.090Z,77
2022-08-01T00:30:48.120Z,75
2022-08-01T00:36:01.026Z,74
2022-08-01T00:41:12.782Z,73
2022-08-01T00:46:25.052Z,73
2022-08-01T00:51:37.109Z,72
2022-08-01T00:56:49.310Z,70
2022-08-01T01:02:01.842Z,71
2022-08-01T01:07:14.143Z,72
2022-08-01T01:12:26.152Z,70
2022-08-01T01:17:52.643Z,69
2022-08-01T01:23:01.960Z,68
2022-08-01T01:28:14.181Z,62
2022-08-01T01:33:26.280Z,63
2022-08-01T01:38:38.411Z,62
2022-08-01T01:43:50.600Z,62
2022-08-01T01:49:03.164Z,58
2022-08-01T01:54:15.347Z,58
2022-08-01T01:59:27.501Z,58
2022-08-01T02:04:39.589Z,58
2022-08-01T02:09:51.781Z,58
2022-08-01T02:15:04.173Z,55
2022-08-01T02:20:16.341Z,56
2022-08-01T02:25:28.310Z,57
2022-08-01T02:30:40.569Z,57
2022-08-01T02:36:34.244Z,55
2022-08-01T02:41:41.111Z,53
2022-08-01T02:46:52.913Z,46
2022-08-01T02:52:06.539Z,50
2022-08-01T02:57:21.720Z,50
2022-08-01T03:02:33.333Z,50
2022-08-01T03:07:49.763Z,50
2022-08-01T03:13:03.994Z,51
2022-08-01T03:18:16.142Z,49
2022-08-01T03:23:39.183Z,40
2022-08-01T03:28:49.473Z,41
2022-08-01T03:34:06.753Z,43
2022-08-01T03:39:18.691Z,42
2022-08-01T03:44:30.722Z,36
2022-08-01T03:49:42.842Z,40
2022-08-01T03:54:54.942Z,44
2022-08-01T04:00:07.052Z,43
2022-08-01T04:10:31.163Z,42
2022-08-01T04:15:43.324Z,43
2022-08-01T04:20:55.403Z,43
2022-08-01T04:26:07.631Z,41
2022-08-01T04:31:19.703Z,40
2022-08-01T04:36:31.753Z,38
2022-08-01T04:41:43.933Z,38
2022-08-01T04:46:56.021Z,37
2022-08-01T04:52:24.523Z,36
2022-08-01T04:57:33.851Z,34
2022-08-01T05:02:45.922Z,37
2022-08-01T05:07:58.043Z,39
2022-08-01T05:13:10.132Z,40
2022-08-01T05:18:31.053Z,40
2022-08-01T05:23:44.232Z,35
2022-08-01T05:28:55.621Z,41
2022-08-01T05:34:15.945Z,42
2022-08-01T05:39:28.991Z,42
2022-08-01T05:44:40.981Z,39
2022-08-01T05:49:53.271Z,42
2022-08-01T05:55:05.777Z,46
2022-08-01T06:00:18.007Z,49
2022-08-01T06:05:30.234Z,49
2022-08-01T06:10:42.391Z,52
2022-08-01T06:15:54.859Z,54
2022-08-01T06:21:07.176Z,57
2022-08-01T06:26:19.429Z,58
2022-08-01T06:31:34.808Z,61
2022-08-01T06:36:46.347Z,67
2022-08-01T06:41:58.710Z,67
2022-08-01T06:47:11.179Z,76
2022-08-01T06:52:23.809Z,87
2022-08-01T06:57:36.271Z,92
2022-08-01T07:02:48.718Z,94
2022-08-01T07:08:01.368Z,93
2022-08-01T07:13:13.750Z,93
2022-08-01T07:18:27.178Z,94
2022-08-01T07:23:47.168Z,94
2022-08-01T07:29:03.678Z,93
2022-08-01T07:34:16.149Z,91
2022-08-01T07:39:29.089Z,92
2022-08-01T07:44:41.509Z,87
2022-08-01T07:49:53.848Z,88
2022-08-01T07:55:06.454Z,87
2022-08-01T08:06:01.129Z,85
2022-08-01T08:11:09.289Z,81
2022-08-01T08:16:22.690Z,82
2022-08-01T08:21:34.828Z,75
2022-08-01T08:26:52.898Z,71
2022-08-01T08:32:07.396Z,68
2022-08-01T08:37:21.731Z,67
2022-08-01T08:42:33.718Z,67
2022-08-01T08:47:46.383Z,63
2022-08-01T08:52:59.109Z,62
2022-08-01T08:58:11.950Z,62
2022-08-01T09:03:25.058Z,61
2022-08-01T09:08:37.762Z,62
2022-08-01T09:13:50.649Z,61
2022-08-01T09:19:03.210Z,61
2022-08-01T09:24:31.189Z,59
2022-08-01T09:29:58.270Z,58
2022-08-01T09:35:13.400Z,59
2022-08-01T09:40:28.800Z,56
2022-08-01T09:45:53.790Z,55
2022-08-01T09:51:10.749Z,55
2022-08-01T09:56:25.971Z,54
2022-08-01T10:01:43.001Z,53
2022-08-01T10:06:57.230Z,52
2022-08-01T10:12:17.240Z,51
2022-08-01T10:22:42.689Z,49
2022-08-01T10:27:56.024Z,49
2022-08-01T10:33:08.769Z,49
2022-08-01T10:39:00.050Z,49
2022-08-01T10:44:13.949Z,47
2022-08-01T10:49:26.896Z,47
2022-08-01T10:54:53.799Z,47
2022-08-01T11:00:04.319Z,45
2022-08-01T11:05:20.652Z,44
2022-08-01T11:10:40.951Z,45
2022-08-01T11:16:23.989Z,45
2022-08-01T11:22:02.450Z,44
2022-08-01T11:27:11.509Z,44
2022-08-01T11:32:25.049Z,42
2022-08-01T11:37:39.109Z,39
2022-08-01T11:48:05.170Z,37
2022-08-01T12:03:46.780Z,36
2022-08-01T12:09:12.670Z,36
2022-08-01T12:14:30.920Z,35
2022-08-01T12:35:19.809Z,34
2022-08-01T12:40:31.871Z,34
2022-08-01T12:50:55.216Z,34
2022-08-01T13:01:19.441Z,38
2022-08-01T13:06:32.231Z,37
2022-08-01T13:22:06.954Z,39
2022-08-01T13:42:52.546Z,41
2022-08-01T14:13:58.636Z,41
2022-08-01T14:30:05.212Z,42
2022-08-01T14:35:13.615Z,42
2022-08-01T14:45:37.038Z,41
2022-08-01T14:56:00.365Z,42
2022-08-01T15:11:35.535Z,44
2022-08-01T15:16:48.036Z,44
2022-08-01T15:22:02.596Z,43
2022-08-01T15:27:14.475Z,44
2022-08-01T15:53:11.394Z,43
2022-08-01T15:58:24.024Z,42
2022-08-01T16:03:36.673Z,42
2022-08-01T16:13:59.854Z,42
2022-08-01T16:19:20.484Z,40
2022-08-01T16:24:33.975Z,41
2022-08-01T16:29:46.676Z,41
2022-08-01T16:35:02.334Z,41
2022-08-01T16:50:36.647Z,41
2022-08-01T16:55:51.707Z,41
2022-08-01T17:06:17.057Z,41
2022-08-01T17:16:39.318Z,41
2022-08-01T17:27:02.448Z,41
2022-08-01T17:42:38.916Z,43
2022-08-01T17:47:52.407Z,43
2022-08-01T18:18:57.228Z,47
2022-08-01T18:39:40.746Z,49
2022-08-01T18:50:07.858Z,51
2022-08-01T18:55:20.328Z,52
2022-08-01T19:00:32.856Z,53
2022-08-01T19:05:45.247Z,53
2022-08-01T19:10:58.038Z,55
2022-08-01T19:21:20.717Z,56
2022-08-01T19:26:33.488Z,56
2022-08-01T19:31:50.378Z,56
2022-08-01T19:37:05.127Z,56
2022-08-01T19:42:20.210Z,57
2022-08-01T19:47:58.507Z,57
2022-08-01T19:53:07.367Z,58
2022-08-01T19:58:29.507Z,58
2022-08-01T20:03:40.351Z,59
2022-08-01T20:14:02.817Z,60
2022-08-01T20:19:18.368Z,62
2022-08-01T20:24:32.397Z,61
2022-08-01T20:29:44.779Z,62
2022-08-01T20:34:58.267Z,63
2022-08-01T20:40:15.169Z,65
2022-08-01T20:45:30.940Z,66
2022-08-01T20:50:55.727Z,67
2022-08-01T20:56:05.814Z,69
2022-08-01T21:01:18.496Z,72
2022-08-01T21:06:30.879Z,75
2022-08-01T21:11:43.281Z,81
2022-08-01T21:16:55.679Z,86
2022-08-01T21:22:14.369Z,88
2022-08-01T21:27:34.891Z,92
2022-08-01T21:32:46.268Z,94
2022-08-01T21:37:58.669Z,95
2022-08-01T21:43:11.000Z,95
2022-08-01T21:48:31.769Z,94
2022-08-01T21:53:49.324Z,91
2022-08-01T21:59:04.822Z,91
2022-08-01T22:04:16.919Z,91
2022-08-01T22:09:29.479Z,91
2022-08-01T22:19:54.589Z,86
2022-08-01T22:25:06.949Z,89
2022-08-01T22:30:18.908Z,87
2022-08-01T22:35:31.129Z,81
2022-08-01T22:45:53.280Z,84
2022-08-01T22:51:05.400Z,84
2022-08-01T22:56:17.659Z,83
2022-08-01T23:01:30.230Z,80
2022-08-01T23:06:42.319Z,77
2022-08-01T23:11:54.789Z,78
2022-08-01T23:17:30.194Z,81
2022-08-01T23:22:38.802Z,78
2022-08-01T23:28:06.918Z,77
2022-08-01T23:33:16.038Z,77
2022-08-01T23:38:28.067Z,78
2022-08-01T23:43:53.140Z,81
2022-08-01T23:49:03.172Z,85
2022-08-01T23:54:17.799Z,87
2022-08-01T23:59:54.683Z,91
